createdAt,value
2018-11-13T00:00:08.313Z,0.8
2018-11-13T00:00:58.583Z,0.8
2018-11-13T00:01:48.417Z,0.8
2018-11-13T00:02:38.507Z,0.8
2018-11-13T00:03:29.007Z,0.8
2018-11-13T00:04:19.085Z,0.8
2018-11-13T00:05:09.148Z,0.8
2018-11-13T00:05:59.200Z,0.8
2018-11-13T00:06:48.992Z,0.8
2018-11-13T00:25:03.186Z,0.6
2018-11-13T00:25:53.442Z,0.7
2018-11-13T00:26:43.091Z,0.6
2018-11-13T00:27:33.873Z,0.7
2018-11-13T00:28:23.294Z,0.7
2018-11-13T00:29:13.914Z,0.6
2018-11-13T00:30:03.721Z,0.6
2018-11-13T00:30:53.880Z,0.6
2018-11-13T00:31:44.141Z,0.6
2018-11-13T00:32:33.896Z,0.6
2018-11-13T00:33:23.185Z,0.6
2018-11-13T00:34:13.970Z,0.6
2018-11-13T00:35:04.086Z,0.6
2018-11-13T00:35:54.118Z,0.6
2018-11-13T00:36:44.005Z,0.6
2018-11-13T00:37:34.248Z,0.6
2018-11-13T00:38:24.008Z,0.6
2018-11-13T00:39:13.604Z,0.6
2018-11-13T00:40:04.150Z,0.6
2018-11-13T00:40:54.528Z,0.6
2018-11-13T00:41:44.560Z,0.6
2018-11-13T00:42:34.595Z,0.6
2018-11-13T00:43:23.895Z,0.6
2018-11-13T00:44:14.250Z,0.6
2018-11-13T00:45:05.050Z,0.6
2018-11-13T00:45:56.908Z,0.6
2018-11-13T00:46:44.635Z,0.6
2018-11-13T00:47:34.694Z,0.6
2018-11-13T00:48:26.575Z,0.6
2018-11-13T00:49:15.162Z,0.6
2018-11-13T00:50:05.161Z,0.6
2018-11-13T00:50:55.894Z,0.6
2018-11-13T00:51:45.276Z,0.6
2018-11-13T00:52:35.351Z,0.6
2018-11-13T00:53:24.805Z,0.6
2018-11-13T00:54:15.716Z,0.6
2018-11-13T00:55:06.700Z,0.6
2018-11-13T00:55:55.893Z,0.6
2018-11-13T00:56:45.461Z,0.6
2018-11-13T00:57:35.386Z,0.6
2018-11-13T00:58:26.031Z,0.6
2018-11-13T00:59:16.310Z,0.6
2018-11-13T01:00:06.231Z,0.6
2018-11-13T01:00:57.197Z,0.6
2018-11-13T01:01:45.987Z,0.6
2018-11-13T01:02:36.044Z,0.6
2018-11-13T01:03:26.091Z,0.6
2018-11-13T01:04:16.158Z,0.5
2018-11-13T01:05:06.996Z,0.5
2018-11-13T01:05:55.511Z,0.5
2018-11-13T01:06:46.645Z,0.5
2018-11-13T01:07:36.977Z,0.4
2018-11-13T01:08:26.523Z,0.4
2018-11-13T01:09:15.958Z,0.4
2018-11-13T01:10:06.106Z,0.4
2018-11-13T01:10:56.147Z,0.4
2018-11-13T01:11:46.820Z,0.3
2018-11-13T01:12:36.548Z,0.4
2018-11-13T01:13:27.199Z,0.3
2018-11-13T01:14:17.162Z,0.3
2018-11-13T01:15:07.084Z,0.3
2018-11-13T01:15:57.265Z,0.3
2018-11-13T01:16:47.590Z,0.3
2018-11-13T01:17:37.108Z,0.3
2018-11-13T01:18:27.181Z,0.2
2018-11-13T01:19:17.202Z,0.2
2018-11-13T01:20:07.297Z,0.1
2018-11-13T01:20:57.879Z,0.1
2018-11-13T01:21:47.694Z,0.1
2018-11-13T01:22:38.462Z,0.1
2018-11-13T01:23:27.821Z,0.1
2018-11-13T01:24:19.371Z,0.1
2018-11-13T01:25:07.182Z,0.1
2018-11-13T01:25:57.520Z,0.1
2018-11-13T01:26:47.490Z,0
2018-11-13T01:27:38.101Z,0
2018-11-13T01:28:27.879Z,-0.1
2018-11-13T01:29:18.204Z,-0.1
2018-11-13T01:30:07.721Z,-0.1
2018-11-13T01:30:58.356Z,-0.1
2018-11-13T01:31:48.416Z,-0.1
2018-11-13T01:32:38.186Z,-0.1
2018-11-13T01:33:28.051Z,-0.2
2018-11-13T01:34:18.316Z,-0.2
2018-11-13T01:35:08.077Z,-0.2
2018-11-13T01:35:58.283Z,-0.2
2018-11-13T01:36:48.311Z,-0.3
2018-11-13T01:37:38.831Z,-0.3
2018-11-13T01:38:28.601Z,-0.3
2018-11-13T01:39:18.933Z,-0.3
2018-11-13T01:40:08.531Z,-0.3
2018-11-13T01:40:58.314Z,-0.3
2018-11-13T01:41:50.162Z,-0.3
2018-11-13T01:42:38.715Z,-0.3
2018-11-13T01:43:28.765Z,-0.3
2018-11-13T01:44:18.530Z,-0.4
2018-11-13T01:45:08.308Z,-0.4
2018-11-13T01:45:58.663Z,-0.4
2018-11-13T01:46:48.710Z,-0.4
2018-11-13T01:47:39.083Z,-0.4
2018-11-13T01:48:29.110Z,-0.4
2018-11-13T01:49:19.658Z,-0.4
2018-11-13T01:50:08.964Z,-0.4
2018-11-13T01:50:59.304Z,-0.5
2018-11-13T01:51:49.568Z,-0.5
2018-11-13T01:52:39.894Z,-0.5
2018-11-13T01:53:29.692Z,-0.6
2018-11-13T01:54:19.892Z,-0.6
2018-11-13T01:55:09.512Z,-0.6
2018-11-13T01:55:59.455Z,-0.6
2018-11-13T01:56:49.904Z,-0.6
2018-11-13T01:57:40.245Z,-0.6
2018-11-13T01:58:29.759Z,-0.6
2018-11-13T01:59:20.109Z,-0.6
2018-11-13T02:00:10.429Z,-0.6
2018-11-13T02:01:00.539Z,-0.7
2018-11-13T02:01:50.802Z,-0.6
2018-11-13T02:02:40.679Z,-0.7
2018-11-13T02:03:30.489Z,-0.7
2018-11-13T02:04:19.771Z,-0.8
2018-11-13T02:05:10.524Z,-0.7
2018-11-13T02:06:00.017Z,-0.8
2018-11-13T02:06:49.956Z,-0.8
2018-11-13T02:07:40.691Z,-0.8
2018-11-13T02:08:30.456Z,-0.8
2018-11-13T02:09:20.546Z,-0.8
2018-11-13T02:10:11.139Z,-0.8
2018-11-13T02:11:00.936Z,-0.8
2018-11-13T02:11:51.224Z,-0.8
2018-11-13T02:12:41.604Z,-0.9
2018-11-13T02:13:30.832Z,-0.9
2018-11-13T02:14:20.986Z,-0.9
2018-11-13T02:15:11.221Z,-0.9
2018-11-13T02:16:01.601Z,-0.9
2018-11-13T02:16:51.347Z,-0.9
2018-11-13T02:17:41.398Z,-0.9
2018-11-13T02:18:30.986Z,-0.9
2018-11-13T02:25:11.967Z,-1
2018-11-13T02:26:02.030Z,-1
2018-11-13T02:26:52.074Z,-1
2018-11-13T02:27:42.435Z,-1
2018-11-13T02:28:31.615Z,-1
2018-11-13T02:29:22.542Z,-1.1
2018-11-13T02:30:12.302Z,-1
2018-11-13T02:31:02.380Z,-1.1
2018-11-13T02:31:52.463Z,-1.1
2018-11-13T02:32:42.514Z,-1.1
2018-11-13T02:33:32.259Z,-1.1
2018-11-13T02:34:22.328Z,-1.1
2018-11-13T02:35:13.169Z,-1.1
2018-11-13T02:36:02.442Z,-1.1
2018-11-13T02:36:52.807Z,-1.1
2018-11-13T02:37:42.802Z,-1.1
2018-11-13T02:38:32.442Z,-1.1
2018-11-13T02:39:23.249Z,-1.1
2018-11-13T02:40:13.044Z,-1.1
2018-11-13T02:41:03.337Z,-1.1
2018-11-13T02:41:53.159Z,-1.1
2018-11-13T02:42:43.214Z,-1.1
2018-11-13T02:43:32.785Z,-1.1
2018-11-13T02:44:23.143Z,-1.1
2018-11-13T02:45:13.201Z,-1.2
2018-11-13T02:46:03.451Z,-1.2
2018-11-13T02:46:53.527Z,-1.2
2018-11-13T02:47:43.591Z,-1.2
2018-11-13T02:48:33.056Z,-1.2
2018-11-13T02:49:23.219Z,-1.2
2018-11-13T02:50:12.981Z,-1.1
2018-11-13T02:51:04.064Z,-1.1
2018-11-13T02:51:54.123Z,-1.1
2018-11-13T02:52:43.908Z,-1.1
2018-11-13T02:53:33.700Z,-1.2
2018-11-13T02:54:24.354Z,-1.2
2018-11-13T02:55:13.821Z,-1.2
2018-11-13T02:56:03.581Z,-1.2
2018-11-13T02:56:53.741Z,-1.2
2018-11-13T02:57:44.558Z,-1.3
2018-11-13T02:58:34.640Z,-1.3
2018-11-13T02:59:24.408Z,-1.3
2018-11-13T03:00:14.468Z,-1.3
2018-11-13T03:01:04.240Z,-1.3
2018-11-13T03:01:54.387Z,-1.3
2018-11-13T03:02:44.644Z,-1.3
2018-11-13T03:03:34.698Z,-1.3
2018-11-13T03:04:24.276Z,-1.4
2018-11-13T03:05:15.368Z,-1.4
2018-11-13T03:06:04.302Z,-1.4
2018-11-13T03:06:54.662Z,-1.4
2018-11-13T03:07:44.718Z,-1.4
2018-11-13T03:08:34.769Z,-1.3
2018-11-13T03:09:25.411Z,-1.3
2018-11-13T03:10:14.894Z,-1.3
2018-11-13T03:11:05.507Z,-1.3
2018-11-13T03:11:55.012Z,-1.3
2018-11-13T03:12:45.650Z,-1.3
2018-11-13T03:13:35.227Z,-1.3
2018-11-13T03:14:24.975Z,-1.3
2018-11-13T03:15:15.296Z,-1.3
2018-11-13T03:16:05.301Z,-1.3
2018-11-13T03:16:55.935Z,-1.3
2018-11-13T03:17:46.022Z,-1.3
2018-11-13T03:18:35.794Z,-1.3
2018-11-13T03:19:25.845Z,-1.3
2018-11-13T03:20:16.122Z,-1.2
2018-11-13T03:21:06.247Z,-1.2
2018-11-13T03:21:55.988Z,-1.2
2018-11-13T03:22:46.071Z,-1.2
2018-11-13T03:23:36.144Z,-1.1
2018-11-13T03:24:26.231Z,-1.1
2018-11-13T03:25:16.301Z,-1.1
2018-11-13T03:26:06.541Z,-1.1
2018-11-13T03:26:56.337Z,-1.1
2018-11-13T03:27:46.146Z,-1.1
2018-11-13T03:28:36.196Z,-1.1
2018-11-13T03:29:25.967Z,-1.1
2018-11-13T03:30:16.598Z,-1.1
2018-11-13T03:31:06.886Z,-1.1
2018-11-13T03:31:57.031Z,-1.1
2018-11-13T03:32:46.907Z,-1.1
2018-11-13T03:33:36.841Z,-1
2018-11-13T03:34:26.906Z,-1
2018-11-13T03:35:16.977Z,-1
2018-11-13T03:36:07.025Z,-1
2018-11-13T03:36:57.065Z,-1
2018-11-13T03:37:46.868Z,-1
2018-11-13T03:38:37.208Z,-1
2018-11-13T03:40:17.331Z,-1
2018-11-13T03:41:07.082Z,-1
2018-11-13T03:43:37.835Z,-1
2018-11-13T03:49:27.675Z,-1
2018-11-13T03:51:08.077Z,-1
2018-11-13T03:51:58.239Z,-1
2018-11-13T03:52:48.227Z,-1
2018-11-13T03:53:38.280Z,-1
2018-11-13T03:54:28.324Z,-1
2018-11-13T03:56:08.182Z,-1
2018-11-13T03:56:58.257Z,-1
2018-11-13T03:57:48.842Z,-1
2018-11-13T03:58:38.935Z,-1
2018-11-13T03:59:28.404Z,-1
2018-11-13T04:00:19.098Z,-1
2018-11-13T04:01:08.873Z,-1
2018-11-13T04:01:58.308Z,-1
2018-11-13T04:02:49.209Z,-1
2018-11-13T04:03:38.987Z,-1
2018-11-13T04:04:28.874Z,-1.1
2018-11-13T04:05:19.409Z,-1.1
2018-11-13T04:06:09.449Z,-1.1
2018-11-13T04:06:59.221Z,-1.1
2018-11-13T04:07:49.831Z,-1.1
2018-11-13T04:08:39.854Z,-1.1
2018-11-13T04:09:29.695Z,-1.1
2018-11-13T04:10:19.066Z,-1.1
2018-11-13T04:11:09.821Z,-1
2018-11-13T04:11:59.599Z,-1
2018-11-13T04:12:50.195Z,-1.1
2018-11-13T04:13:39.412Z,-1.1
2018-11-13T04:14:29.461Z,-1.1
2018-11-13T04:15:19.838Z,-1.1
2018-11-13T04:16:09.896Z,-1.1
2018-11-13T04:16:59.655Z,-1.1
2018-11-13T04:17:50.766Z,-1.1
2018-11-13T04:18:39.775Z,-1.1
2018-11-13T04:19:30.385Z,-1.1
2018-11-13T04:20:20.188Z,-1.1
2018-11-13T04:21:10.248Z,-1.1
2018-11-13T04:22:00.262Z,-1.1
2018-11-13T04:22:50.075Z,-1.1
2018-11-13T04:23:40.428Z,-1.1
2018-11-13T04:24:30.753Z,-1.1
2018-11-13T04:25:20.838Z,-1.1
2018-11-13T04:26:10.591Z,-1.2
2018-11-13T04:27:00.640Z,-1.1
2018-11-13T04:27:50.700Z,-1.2
2018-11-13T04:28:40.283Z,-1.2
2018-11-13T04:29:30.832Z,-1.2
2018-11-13T04:30:21.125Z,-1.2
2018-11-13T04:31:10.947Z,-1.3
2018-11-13T04:32:01.040Z,-1.3
2018-11-13T04:32:50.779Z,-1.3
2018-11-13T04:33:41.400Z,-1.3
2018-11-13T04:34:31.473Z,-1.3
2018-11-13T04:35:20.764Z,-1.3
2018-11-13T04:36:11.014Z,-1.3
2018-11-13T04:37:01.659Z,-1.3
2018-11-13T04:54:17.011Z,-1.3
2018-11-13T04:55:07.306Z,-1.3
2018-11-13T04:55:56.581Z,-1.3
2018-11-13T04:56:46.628Z,-1.3
2018-11-13T04:57:36.700Z,-1.3
2018-11-13T04:58:26.742Z,-1.4
2018-11-13T04:59:17.085Z,-1.4
2018-11-13T05:00:06.936Z,-1.4
2018-11-13T05:00:56.708Z,-1.4
2018-11-13T05:01:46.989Z,-1.4
2018-11-13T05:02:37.244Z,-1.4
2018-11-13T05:03:26.612Z,-1.4
2018-11-13T05:04:16.858Z,-1.4
2018-11-13T05:05:07.187Z,-1.4
2018-11-13T05:05:57.268Z,-1.5
2018-11-13T05:06:47.053Z,-1.5
2018-11-13T05:07:36.815Z,-1.5
2018-11-13T05:08:27.456Z,-1.5
2018-11-13T05:09:17.810Z,-1.5
2018-11-13T05:10:08.242Z,-1.5
2018-11-13T05:10:57.063Z,-1.5
2018-11-13T05:11:47.208Z,-1.5
2018-11-13T05:12:37.733Z,-1.6
2018-11-13T05:13:27.785Z,-1.6
2018-11-13T05:14:17.961Z,-1.6
2018-11-13T05:15:07.632Z,-1.5
2018-11-13T05:15:58.273Z,-1.6
2018-11-13T05:16:48.037Z,-1.5
2018-11-13T05:17:38.107Z,-1.6
2018-11-13T05:18:28.182Z,-1.6
2018-11-13T05:19:17.542Z,-1.6
2018-11-13T05:20:08.279Z,-1.6
2018-11-13T05:20:58.359Z,-1.6
2018-11-13T05:21:48.690Z,-1.6
2018-11-13T05:22:38.175Z,-1.6
2018-11-13T05:23:28.522Z,-1.6
2018-11-13T05:24:18.315Z,-1.6
2018-11-13T05:25:08.597Z,-1.6
2018-11-13T05:25:58.691Z,-1.6
2018-11-13T05:26:48.459Z,-1.6
2018-11-13T05:27:38.630Z,-1.6
2018-11-13T05:28:28.600Z,-1.6
2018-11-13T05:29:18.748Z,-1.6
2018-11-13T05:30:08.948Z,-1.6
2018-11-13T05:30:58.590Z,-1.6
2018-11-13T05:31:49.131Z,-1.6
2018-11-13T05:32:38.407Z,-1.5
2018-11-13T05:33:29.239Z,-1.5
2018-11-13T05:34:19.304Z,-1.5
2018-11-13T05:35:09.165Z,-1.5
2018-11-13T05:35:59.122Z,-1.5
2018-11-13T05:36:49.489Z,-1.5
2018-11-13T05:37:39.559Z,-1.5
2018-11-13T05:38:29.009Z,-1.5
2018-11-13T05:39:19.188Z,-1.5
2018-11-13T05:40:09.679Z,-1.5
2018-11-13T05:40:59.493Z,-1.4
2018-11-13T05:41:49.627Z,-1.4
2018-11-13T05:42:40.205Z,-1.4
2018-11-13T05:43:29.968Z,-1.4
2018-11-13T05:44:19.714Z,-1.4
2018-11-13T05:45:09.693Z,-1.4
2018-11-13T05:46:00.109Z,-1.4
2018-11-13T05:46:50.191Z,-1.4
2018-11-13T05:47:40.248Z,-1.4
2018-11-13T05:48:30.323Z,-1.4
2018-11-13T05:49:19.503Z,-1.3
2018-11-13T05:50:10.388Z,-1.3
2018-11-13T05:51:00.216Z,-1.3
2018-11-13T05:51:50.051Z,-1.3
2018-11-13T05:52:39.928Z,-1.3
2018-11-13T05:53:30.104Z,-1.2
2018-11-13T05:54:21.005Z,-1.2
2018-11-13T05:55:11.053Z,-1.2
2018-11-13T05:56:00.863Z,-1.1
2018-11-13T05:56:50.915Z,-1.1
2018-11-13T05:57:40.991Z,-1.1
2018-11-13T05:58:31.050Z,-1
2018-11-13T05:59:21.118Z,-1
2018-11-13T06:01:50.688Z,-0.9
2018-11-13T06:02:41.120Z,-0.9
2018-11-13T06:03:30.882Z,-0.8
2018-11-13T06:04:21.137Z,-0.8
2018-11-13T06:05:11.499Z,-0.7
2018-11-13T06:06:01.851Z,-0.6
2018-11-13T06:06:52.167Z,-0.6
2018-11-13T06:07:41.277Z,-0.6
2018-11-13T06:08:31.631Z,-0.5
2018-11-13T06:09:21.782Z,-0.4
2018-11-13T06:10:12.157Z,-0.4
2018-11-13T06:11:01.334Z,-0.3
2018-11-13T06:11:52.270Z,-0.3
2018-11-13T06:12:41.354Z,-0.1
2018-11-13T06:13:32.109Z,-0.1
2018-11-13T06:14:22.469Z,0.1
2018-11-13T06:15:12.323Z,0.2
2018-11-13T06:16:01.997Z,0.3
2018-11-13T06:16:51.764Z,0.5
2018-11-13T06:17:42.444Z,0.6
2018-11-13T06:18:32.174Z,0.9
2018-11-13T06:19:21.941Z,1.1
2018-11-13T06:20:12.279Z,1.3
2018-11-13T06:21:02.334Z,1.6
2018-11-13T06:21:52.959Z,1.9
2018-11-13T06:22:42.709Z,2.2
2018-11-13T06:23:33.116Z,2.5
2018-11-13T06:24:22.890Z,2.8
2018-11-13T06:25:12.621Z,3.1
2018-11-13T06:26:02.978Z,3.4
2018-11-13T06:26:53.066Z,3.8
2018-11-13T06:27:42.323Z,4.1
2018-11-13T06:28:33.192Z,4.4
2018-11-13T06:29:23.338Z,4.8
2018-11-13T06:30:13.287Z,5.1
2018-11-13T06:31:03.342Z,5.4
2018-11-13T06:31:53.675Z,5.8
2018-11-13T06:32:43.473Z,6.1
2018-11-13T06:33:33.827Z,6.5
2018-11-13T06:34:23.101Z,6.8
2018-11-13T06:35:13.657Z,7.3
2018-11-13T06:36:03.988Z,7.7
2018-11-13T06:36:53.489Z,8.1
2018-11-13T06:37:43.807Z,8.5
2018-11-13T06:38:33.442Z,9
2018-11-13T06:39:23.450Z,9.4
2018-11-13T06:40:13.985Z,9.9
2018-11-13T06:41:04.043Z,10.3
2018-11-13T06:41:53.625Z,10.7
2018-11-13T06:42:44.164Z,11.1
2018-11-13T06:43:33.959Z,11.6
2018-11-13T06:44:24.282Z,12
2018-11-13T06:45:14.066Z,12.4
2018-11-13T06:46:04.687Z,12.8
2018-11-13T06:46:53.964Z,13.3
2018-11-13T06:47:44.539Z,13.7
2018-11-13T06:48:34.079Z,14.1
2018-11-13T06:49:24.859Z,14.5
2018-11-13T06:50:15.022Z,15
2018-11-13T06:51:05.316Z,15.4
2018-11-13T06:51:54.603Z,15.8
2018-11-13T06:52:44.403Z,16.2
2018-11-13T06:53:34.462Z,16.6
2018-11-13T06:55:15.053Z,17.4
2018-11-13T06:56:05.138Z,17.8
2018-11-13T06:56:55.176Z,18.2
2018-11-13T06:57:44.952Z,18.6
2018-11-13T06:58:35.236Z,19.1
2018-11-13T06:59:25.081Z,19.6
2018-11-13T07:00:15.428Z,19.9
2018-11-13T07:01:04.784Z,20.4
2018-11-13T07:01:55.531Z,20.9
2018-11-13T07:02:45.317Z,21.3
2018-11-13T07:03:35.718Z,21.8
2018-11-13T07:04:25.525Z,22.2
2018-11-13T07:05:16.320Z,22.7
2018-11-13T07:06:05.619Z,23.1
2018-11-13T07:06:55.600Z,23.6
2018-11-13T07:07:45.383Z,24
2018-11-13T07:08:35.506Z,24.4
2018-11-13T07:09:25.779Z,24.9
2018-11-13T07:10:16.115Z,25.3
2018-11-13T07:11:06.335Z,25.8
2018-11-13T07:11:55.960Z,26.2
2018-11-13T07:12:46.290Z,26.6
2018-11-13T07:13:35.672Z,27.1
2018-11-13T07:14:26.435Z,27.4
2018-11-13T07:16:06.546Z,28.2
2018-11-13T07:16:56.611Z,28.6
2018-11-13T07:17:46.748Z,29
2018-11-13T07:18:36.299Z,29.4
2018-11-13T07:19:26.791Z,29.8
2018-11-13T07:20:16.640Z,30.1
2018-11-13T07:21:06.628Z,30.6
2018-11-13T07:21:56.458Z,30.9
2018-11-13T07:22:46.730Z,31.3
2018-11-13T07:23:37.105Z,31.7
2018-11-13T07:24:27.130Z,32.1
2018-11-13T07:25:17.361Z,32.4
2018-11-13T07:26:07.270Z,32.8
2018-11-13T07:26:57.453Z,33.2
2018-11-13T07:27:47.288Z,33.6
2018-11-13T07:28:37.246Z,33.9
2018-11-13T07:29:27.198Z,34.2
2018-11-13T07:30:17.575Z,34.4
2018-11-13T07:31:07.936Z,34.8
2018-11-13T07:31:57.779Z,35.1
2018-11-13T07:32:48.035Z,35.3
2018-11-13T07:33:37.597Z,35.6
2018-11-13T07:34:27.947Z,35.9
2018-11-13T07:35:17.927Z,36.1
2018-11-13T07:36:07.202Z,36.4
2018-11-13T07:36:58.299Z,36.7
2018-11-13T07:37:47.784Z,37
2018-11-13T07:38:37.845Z,37.3
2018-11-13T07:39:28.215Z,37.6
2018-11-13T07:40:18.625Z,37.9
2018-11-13T07:41:08.315Z,38.2
2018-11-13T07:41:58.384Z,38.5
2018-11-13T07:42:48.439Z,38.8
2018-11-13T07:43:38.509Z,39.1
2018-11-13T07:44:27.771Z,39.4
2018-11-13T07:45:18.691Z,39.8
2018-11-13T07:46:08.951Z,40.2
2018-11-13T07:46:59.383Z,40.5
2018-11-13T07:47:50.596Z,40.9
2018-11-13T07:48:39.158Z,41.3
2018-11-13T07:49:28.905Z,41.6
2018-11-13T07:50:19.307Z,41.8
2018-11-13T07:51:09.738Z,42.1
2018-11-13T07:51:59.603Z,42.4
2018-11-13T07:52:49.431Z,42.7
2018-11-13T07:53:39.270Z,43
2018-11-13T07:54:29.524Z,43.3
2018-11-13T07:55:19.310Z,43.6
2018-11-13T07:56:09.726Z,44
2018-11-13T07:56:59.246Z,44.3
2018-11-13T07:57:49.507Z,44.6
2018-11-13T07:58:39.695Z,44.9
2018-11-13T07:59:29.620Z,45.1
2018-11-13T08:00:19.954Z,45.3
2018-11-13T08:01:09.813Z,45.5
2018-11-13T08:01:59.307Z,45.7
2018-11-13T08:02:49.652Z,45.8
2018-11-13T08:03:40.231Z,45.9
2018-11-13T08:04:29.967Z,46.6
2018-11-13T08:05:20.356Z,47.1
2018-11-13T08:06:10.208Z,46.3
2018-11-13T08:07:00.432Z,45.1
2018-11-13T08:07:50.212Z,42.3
2018-11-13T08:08:40.252Z,39.8
2018-11-13T08:09:30.782Z,38.4
2018-11-13T08:10:20.420Z,37.5
2018-11-13T08:11:10.161Z,36.9
2018-11-13T08:12:00.340Z,36.4
2018-11-13T08:12:51.458Z,36.1
2018-11-13T08:13:41.218Z,35.9
2018-11-13T08:14:30.961Z,35.9
2018-11-13T08:15:20.744Z,36.1
2018-11-13T08:16:10.521Z,36.5
2018-11-13T08:17:01.162Z,37.1
2018-11-13T08:17:50.642Z,37.8
2018-11-13T08:18:41.006Z,38.3
2018-11-13T08:19:30.802Z,38.6
2018-11-13T08:20:20.826Z,38.9
2018-11-13T08:21:11.550Z,39.1
2018-11-13T08:22:01.157Z,39.2
2018-11-13T08:22:51.563Z,39.4
2018-11-13T08:23:41.629Z,39.6
2018-11-13T08:24:31.426Z,40
2018-11-13T08:25:22.021Z,40.6
2018-11-13T08:26:11.916Z,41.1
2018-11-13T08:27:02.285Z,41.6
2018-11-13T08:27:51.693Z,42.2
2018-11-13T08:28:41.893Z,42.8
2018-11-13T08:29:31.864Z,43.4
2018-11-13T08:30:21.058Z,43.9
2018-11-13T08:31:12.142Z,44.4
2018-11-13T08:32:01.978Z,44.8
2018-11-13T08:32:52.014Z,45
2018-11-13T08:33:42.079Z,45.3
2018-11-13T08:34:32.120Z,45.7
2018-11-13T08:35:21.908Z,46
2018-11-13T08:36:12.000Z,46.5
2018-11-13T08:37:02.318Z,47.3
2018-11-13T08:37:52.375Z,46.6
2018-11-13T08:38:42.712Z,45.3
2018-11-13T08:39:32.476Z,43.3
2018-11-13T08:40:22.842Z,41.2
2018-11-13T08:41:12.613Z,39.8
2018-11-13T08:42:02.399Z,38.8
2018-11-13T08:42:52.724Z,38.1
2018-11-13T08:43:43.246Z,37.6
2018-11-13T08:44:32.853Z,37.2
2018-11-13T08:45:22.886Z,36.9
2018-11-13T08:46:13.251Z,36.6
2018-11-13T08:47:03.572Z,36.5
2018-11-13T08:47:52.801Z,36.5
2018-11-13T08:48:42.873Z,36.6
2018-11-13T08:49:33.221Z,36.7
2018-11-13T08:50:23.652Z,36.9
2018-11-13T08:51:13.338Z,37.3
2018-11-13T08:52:03.654Z,37.7
2018-11-13T08:52:53.723Z,38.4
2018-11-13T09:08:44.567Z,42.9
2018-11-13T09:09:34.829Z,43.4
2018-11-13T09:10:24.319Z,44.1
2018-11-13T09:11:14.285Z,44.9
2018-11-13T09:12:04.788Z,45.7
2018-11-13T09:12:54.242Z,46.9
2018-11-13T09:13:45.106Z,49
2018-11-13T09:14:34.878Z,49.8
2018-11-13T09:15:24.209Z,50.3
2018-11-13T09:16:14.446Z,50.1
2018-11-13T09:17:04.529Z,48.8
2018-11-13T09:17:54.943Z,47.4
2018-11-13T09:18:45.234Z,46.7
2018-11-13T09:19:37.525Z,46.9
2018-11-13T09:20:24.465Z,47.7
2018-11-13T09:21:15.079Z,48.3
2018-11-13T09:22:05.427Z,48.4
2018-11-13T09:22:55.403Z,48.3
2018-11-13T09:23:45.318Z,47.9
2018-11-13T09:24:35.066Z,47.4
2018-11-13T09:25:25.706Z,47.1
2018-11-13T09:26:15.143Z,47
2018-11-13T09:27:05.818Z,47.1
2018-11-13T09:27:55.094Z,47.3
2018-11-13T09:28:45.354Z,47.5
2018-11-13T09:29:35.430Z,47.8
2018-11-13T09:30:26.981Z,47.8
2018-11-13T09:31:15.910Z,47.8
2018-11-13T09:32:05.900Z,47.7
2018-11-13T09:32:56.339Z,47.8
2018-11-13T09:33:46.307Z,47.9
2018-11-13T09:34:35.736Z,47.9
2018-11-13T09:35:26.467Z,48.1
2018-11-13T09:36:15.695Z,48.2
2018-11-13T09:37:05.952Z,48.4
2018-11-13T09:37:56.278Z,48.5
2018-11-13T09:38:46.650Z,48.6
2018-11-13T09:39:36.705Z,48.8
2018-11-13T09:40:26.768Z,48.8
2018-11-13T09:41:16.612Z,48.7
2018-11-13T09:42:06.612Z,48.5
2018-11-13T09:42:56.674Z,48.4
2018-11-13T09:43:46.745Z,48.4
2018-11-13T09:44:36.853Z,48.4
2018-11-13T09:45:27.187Z,48.7
2018-11-13T09:46:17.187Z,49
2018-11-13T09:47:06.952Z,49.3
2018-11-13T09:47:57.455Z,49.4
2018-11-13T09:48:47.340Z,49.6
2018-11-13T09:49:36.922Z,49.7
2018-11-13T09:50:27.221Z,49.8
2018-11-13T09:51:16.769Z,49.9
2018-11-13T09:52:07.625Z,50
2018-11-13T09:52:57.379Z,50.1
2018-11-13T09:53:47.831Z,50.1
2018-11-13T09:54:37.367Z,50.1
2018-11-13T09:55:27.957Z,50.1
2018-11-13T09:56:17.491Z,50.1
2018-11-13T09:57:07.397Z,50.3
2018-11-13T09:57:57.717Z,50.4
2018-11-13T09:58:47.844Z,50.6
2018-11-13T09:59:37.583Z,50.7
2018-11-13T10:00:28.300Z,50.8
2018-11-13T10:01:19.788Z,50.9
2018-11-13T10:02:10.792Z,50.9
2018-11-13T10:02:59.911Z,51
2018-11-13T10:03:48.333Z,51.1
2018-11-13T10:04:38.812Z,51
2018-11-13T10:05:28.637Z,50.8
2018-11-13T10:06:18.879Z,50.8
2018-11-13T10:07:07.825Z,50.7
2018-11-13T10:07:58.550Z,50.7
2018-11-13T10:08:48.236Z,50.7
2018-11-13T10:09:38.271Z,50.8
2018-11-13T10:10:28.824Z,50.7
2018-11-13T10:11:18.278Z,50.5
2018-11-13T10:12:08.262Z,50.3
2018-11-13T10:12:58.803Z,50.1
2018-11-13T10:13:49.164Z,50
2018-11-13T10:14:38.628Z,49.8
2018-11-13T10:15:29.275Z,49.8
2018-11-13T10:16:19.277Z,49.9
2018-11-13T10:17:09.339Z,49.9
2018-11-13T10:17:59.853Z,50
2018-11-13T10:18:49.345Z,50
2018-11-13T10:19:39.289Z,50
2018-11-13T10:20:28.870Z,50
2018-11-13T10:21:19.655Z,50.1
2018-11-13T10:22:09.486Z,50.1
2018-11-13T10:22:59.548Z,50.1
2018-11-13T10:23:49.397Z,50.1
2018-11-13T10:24:39.360Z,50.2
2018-11-13T10:25:29.422Z,50.3
2018-11-13T10:26:19.882Z,50.4
2018-11-13T10:27:10.364Z,50.4
2018-11-13T10:27:59.610Z,50.5
2018-11-13T10:28:49.444Z,50.6
2018-11-13T10:29:40.304Z,50.8
2018-11-13T10:30:30.320Z,50.8
2018-11-13T10:31:19.847Z,50.9
2018-11-13T10:32:09.905Z,50.9
2018-11-13T10:33:00.519Z,50.8
2018-11-13T10:33:50.594Z,50.7
2018-11-13T10:34:39.787Z,50.6
2018-11-13T10:35:30.432Z,50.6
2018-11-13T10:36:20.507Z,50.6
2018-11-13T10:37:10.856Z,50.7
2018-11-13T10:38:00.614Z,50.7
2018-11-13T10:38:50.396Z,50.7
2018-11-13T10:39:40.735Z,50.7
2018-11-13T10:40:32.053Z,50.6
2018-11-13T10:41:20.743Z,50.5
2018-11-13T10:42:10.629Z,50.5
2018-11-13T10:43:01.012Z,50.4
2018-11-13T10:43:50.751Z,50.4
2018-11-13T10:44:41.401Z,50.4
2018-11-13T10:45:31.436Z,50.4
2018-11-13T10:46:21.194Z,50.4
2018-11-13T10:47:10.795Z,50.3
2018-11-13T10:48:00.844Z,50.4
2018-11-13T10:48:51.516Z,50.4
2018-11-13T10:49:41.448Z,50.4
2018-11-13T10:50:32.236Z,50.4
2018-11-13T10:51:21.372Z,50.4
2018-11-13T10:52:11.633Z,50.4
2018-11-13T10:53:01.461Z,50.5
2018-11-13T10:53:51.746Z,50.6
2018-11-13T10:54:41.823Z,50.6
2018-11-13T10:55:31.866Z,50.6
2018-11-13T10:56:22.506Z,50.7
2018-11-13T10:57:11.692Z,50.7
2018-11-13T10:58:02.330Z,50.7
2018-11-13T10:58:51.822Z,50.6
2018-11-13T10:59:42.505Z,50.6
2018-11-13T11:00:32.228Z,50.6
2018-11-13T11:01:22.094Z,50.5
2018-11-13T11:02:12.150Z,50.4
2018-11-13T11:03:03.152Z,50.3
2018-11-13T11:03:52.750Z,50.2
2018-11-13T11:04:42.515Z,50.1
2018-11-13T11:05:32.577Z,50
2018-11-13T11:06:22.882Z,49.9
2018-11-13T11:07:12.414Z,50
2018-11-13T11:08:03.058Z,50.1
2018-11-13T11:08:52.242Z,50.2
2018-11-13T11:09:42.417Z,50.3
2018-11-13T11:10:32.941Z,50.4
2018-11-13T11:11:23.215Z,50.4
2018-11-13T11:12:12.821Z,50.6
2018-11-13T11:13:03.039Z,50.8
2018-11-13T11:13:54.461Z,50.9
2018-11-13T11:14:43.253Z,51.1
2018-11-13T11:15:33.027Z,51.1
2018-11-13T11:16:23.374Z,51.3
2018-11-13T11:17:13.445Z,51.4
2018-11-13T11:18:03.695Z,51.5
2018-11-13T11:18:53.759Z,51.5
2018-11-13T11:19:43.341Z,51.5
2018-11-13T11:20:33.655Z,51.5
2018-11-13T11:21:23.686Z,51.5
2018-11-13T11:22:13.613Z,51.4
2018-11-13T11:23:04.082Z,51.4
2018-11-13T11:23:54.436Z,51.4
2018-11-13T11:24:44.276Z,51.3
2018-11-13T11:25:33.559Z,51.3
2018-11-13T11:26:23.845Z,51.2
2018-11-13T11:27:14.108Z,51.2
2018-11-13T11:28:03.975Z,51.2
2018-11-13T11:28:54.273Z,51.1
2018-11-13T11:29:44.634Z,50.9
2018-11-13T11:30:34.113Z,50.8
2018-11-13T11:31:24.481Z,50.7
2018-11-13T11:32:14.488Z,50.6
2018-11-13T11:33:04.569Z,50.7
2018-11-13T11:33:54.924Z,50.8
2018-11-13T11:34:44.419Z,50.8
2018-11-13T11:35:34.745Z,50.8
2018-11-13T11:36:24.242Z,50.9
2018-11-13T11:37:15.142Z,50.9
2018-11-13T11:38:04.890Z,50.8
2018-11-13T11:38:56.646Z,50.8
2018-11-13T11:39:45.345Z,50.8
2018-11-13T11:40:35.400Z,50.6
2018-11-13T11:41:24.885Z,50.5
2018-11-13T11:42:15.247Z,50.4
2018-11-13T11:43:05.530Z,50.2
2018-11-13T11:43:55.632Z,50.1
2018-11-13T11:44:45.710Z,49.9
2018-11-13T11:45:35.763Z,49.8
2018-11-13T11:46:25.534Z,49.6
2018-11-13T11:47:15.105Z,49.5
2018-11-13T11:48:05.675Z,49.4
2018-11-13T11:48:55.713Z,49.4
2018-11-13T11:49:46.064Z,49.4
2018-11-13T11:50:35.821Z,49.4
2018-11-13T11:51:25.874Z,49.5
2018-11-13T11:52:15.377Z,49.5
2018-11-13T11:53:06.299Z,49.4
2018-11-13T11:53:57.096Z,49.4
2018-11-13T11:54:45.879Z,49.4
2018-11-13T11:55:35.941Z,49.4
2018-11-13T11:56:26.069Z,49.4
2018-11-13T11:57:16.606Z,49.3
2018-11-13T11:58:06.397Z,49.3
2018-11-13T11:58:56.169Z,49.2
2018-11-13T11:59:45.921Z,49.2
2018-11-13T12:00:36.712Z,49.1
2018-11-13T12:01:26.041Z,48.9
2018-11-13T12:02:16.619Z,48.9
2018-11-13T12:03:06.793Z,48.9
2018-11-13T12:03:56.818Z,48.8
2018-11-13T12:04:47.360Z,48.8
2018-11-13T12:05:36.723Z,48.8
2018-11-13T12:06:26.694Z,48.8
2018-11-13T12:07:16.176Z,48.6
2018-11-13T12:08:07.109Z,48.5
2018-11-13T12:08:56.875Z,48.4
2018-11-13T12:09:47.210Z,48.3
2018-11-13T12:10:37.031Z,48.1
2018-11-13T12:11:27.053Z,48.1
2018-11-13T12:12:17.185Z,48.1
2018-11-13T12:13:06.978Z,48.1
2018-11-13T12:13:57.232Z,48.1
2018-11-13T12:14:47.593Z,48
2018-11-13T12:15:37.143Z,48
2018-11-13T12:16:27.428Z,48.1
2018-11-13T12:17:17.779Z,48.1
2018-11-13T12:18:07.827Z,48.2
2018-11-13T12:18:57.963Z,48.3
2018-11-13T12:19:48.085Z,48.3